Time;durP1;ratioP1;P1;durP2;ratioP2;P2;SDS_P1;SDS_P2;PMS_P1;PMS_P2;Temp;Humidity;BMP_temperature;BMP_pressure;BME280_temperature;BME280_humidity;BME280_pressure;Samples;Min_cycle;Max_cycle;Signal;HPM_P1;HPM_P2
2023/03/11 02:05:00;;;;;;;1.47;0.80;;;;;;;;;;6171713;22;20256;-89
2023/03/11 02:08:05;;;;;;;0.70;0.70;;;;;;;;;;6228179;23;20167;-91
2023/03/11 02:11:13;;;;;;;0.50;0.50;;;;;;;;;;6228302;23;20163;-90
2023/03/11 02:14:18;;;;;;;0.70;0.50;;;;;;;;;;6227563;23;20167;-91
2023/03/11 02:17:23;;;;;;;0.70;0.53;;;;;;;;;;6227388;23;20633;-91
2023/03/11 02:24:09;;;;;;;0.60;0.60;;;;;;;;;;6229325;23;20167;-91
2023/03/11 02:27:17;;;;;;;1.03;0.60;;;;;;;;;;6228076;23;20657;-92
2023/03/11 02:30:24;;;;;;;0.43;0.43;;;;;;;;;;6230092;22;20176;-92
2023/03/11 02:33:32;;;;;;;0.53;0.50;;;;;;;;;;6226859;23;20246;-90
2023/03/11 02:36:38;;;;;;;0.73;0.50;;;;;;;;;;6226862;23;20515;-93
2023/03/11 02:39:46;;;;;;;3.10;0.53;;;;;;;;;;6226616;23;20171;-92
2023/03/11 02:42:55;;;;;;;0.50;0.50;;;;;;;;;;6225582;23;20170;-92
2023/03/11 02:46:01;;;;;;;0.50;0.50;;;;;;;;;;6227306;23;20171;-91
2023/03/11 02:49:07;;;;;;;0.50;0.50;;;;;;;;;;6226854;23;20167;-91
2023/03/11 02:52:12;;;;;;;0.67;0.50;;;;;;;;;;6228945;23;20197;-90
2023/03/11 02:55:19;;;;;;;0.50;0.50;;;;;;;;;;6226864;23;20171;-91
2023/03/11 02:58:25;;;;;;;0.50;0.50;;;;;;;;;;6228024;23;20167;-92
2023/03/11 03:01:34;;;;;;;1.03;0.50;;;;;;;;;;6228843;23;20175;-92
2023/03/11 03:04:40;;;;;;;1.47;0.63;;;;;;;;;;6225785;23;20190;-90
2023/03/11 03:07:45;;;;;;;0.93;0.60;;;;;;;;;;6226622;23;20159;-91
2023/03/11 03:10:50;;;;;;;0.60;0.50;;;;;;;;;;6226490;23;20175;-90
2023/03/11 03:13:57;;;;;;;0.87;0.67;;;;;;;;;;6226865;23;20219;-91
2023/03/11 03:17:02;;;;;;;0.50;0.50;;;;;;;;;;6227484;23;20191;-93
2023/03/11 03:20:10;;;;;;;0.57;0.53;;;;;;;;;;6226379;23;20632;-90
2023/03/11 03:23:17;;;;;;;1.03;0.53;;;;;;;;;;6227938;23;20163;-91
2023/03/11 03:26:22;;;;;;;1.50;0.83;;;;;;;;;;6226674;23;20661;-90
2023/03/11 03:29:30;;;;;;;0.90;0.70;;;;;;;;;;6228020;23;20227;-91
2023/03/11 03:32:35;;;;;;;0.50;0.50;;;;;;;;;;6226388;23;20163;-91
2023/03/11 03:35:41;;;;;;;0.93;0.80;;;;;;;;;;6227097;23;20171;-92
2023/03/11 03:38:54;;;;;;;1.13;0.80;;;;;;;;;;6227384;23;20171;-92
2023/03/11 03:41:59;;;;;;;3.80;0.90;;;;;;;;;;6227068;23;20168;-91
2023/03/11 03:45:10;;;;;;;0.83;0.70;;;;;;;;;;6228246;23;20294;-92
2023/03/11 03:48:15;;;;;;;1.47;0.90;;;;;;;;;;6224607;23;20630;-91
2023/03/11 03:51:23;;;;;;;1.13;0.80;;;;;;;;;;6226276;23;20171;-92
2023/03/11 03:54:51;;;;;;;1.63;0.90;;;;;;;;;;6227103;23;20175;-90
2023/03/11 03:57:56;;;;;;;0.70;0.70;;;;;;;;;;6226984;23;20190;-92
2023/03/11 04:01:39;;;;;;;1.00;0.80;;;;;;;;;;6228485;23;20167;-90
2023/03/11 04:04:46;;;;;;;1.83;0.83;;;;;;;;;;6230612;23;20195;-92
2023/03/11 04:07:52;;;;;;;1.47;0.90;;;;;;;;;;6229718;23;20214;-92
2023/03/11 04:10:57;;;;;;;0.80;0.80;;;;;;;;;;6230633;23;20170;-92
2023/03/11 04:14:20;;;;;;;1.43;1.00;;;;;;;;;;6229821;23;20171;-92
2023/03/11 04:17:31;;;;;;;1.30;1.00;;;;;;;;;;6229271;23;20202;-92
2023/03/11 04:20:40;;;;;;;1.70;0.83;;;;;;;;;;6230149;23;20171;-92
2023/03/11 04:23:46;;;;;;;1.20;0.80;;;;;;;;;;6230419;23;20186;-91
2023/03/11 04:26:53;;;;;;;1.47;0.97;;;;;;;;;;6231783;23;20175;-91
2023/03/11 04:29:59;;;;;;;1.20;1.00;;;;;;;;;;6230549;23;20167;-92
2023/03/11 04:33:04;;;;;;;2.73;1.20;;;;;;;;;;6230575;23;20151;-93
2023/03/11 04:36:11;;;;;;;2.47;1.13;;;;;;;;;;6231565;23;20632;-93
2023/03/11 04:39:16;;;;;;;1.50;1.10;;;;;;;;;;6231203;23;20210;-90
2023/03/11 04:42:23;;;;;;;2.20;1.40;;;;;;;;;;6231893;23;20170;-92
2023/03/11 04:45:29;;;;;;;2.40;1.30;;;;;;;;;;6231675;23;20211;-92
2023/03/11 04:48:36;;;;;;;2.13;1.60;;;;;;;;;;6229624;23;20630;-91
2023/03/11 04:51:43;;;;;;;2.63;1.43;;;;;;;;;;6231501;23;20507;-92
2023/03/11 04:54:49;;;;;;;3.77;1.60;;;;;;;;;;6230062;23;20191;-92
2023/03/11 04:57:55;;;;;;;2.50;1.20;;;;;;;;;;6229622;23;20191;-93
2023/03/11 05:01:03;;;;;;;4.37;1.80;;;;;;;;;;6231435;23;20195;-92
2023/03/11 05:04:09;;;;;;;4.53;1.83;;;;;;;;;;6230723;23;20174;-92
2023/03/11 05:07:17;;;;;;;3.83;1.37;;;;;;;;;;6249500;23;20154;-92
2023/03/11 05:10:23;;;;;;;2.27;1.23;;;;;;;;;;6229937;23;20183;-91
2023/03/11 05:17:53;;;;;;;3.70;1.47;;;;;;;;;;6231270;23;20248;-91
2023/03/11 05:21:17;;;;;;;4.57;1.20;;;;;;;;;;6231179;23;20560;-90
2023/03/11 05:24:25;;;;;;;4.60;1.50;;;;;;;;;;6229976;23;20163;-92
2023/03/11 05:27:30;;;;;;;5.13;1.80;;;;;;;;;;6230231;23;20163;-90
2023/03/11 05:30:36;;;;;;;2.53;1.00;;;;;;;;;;6230393;23;20166;-92
2023/03/11 05:33:42;;;;;;;1.40;1.10;;;;;;;;;;6230042;23;20172;-93
2023/03/11 05:36:50;;;;;;;2.70;1.00;;;;;;;;;;6228913;23;20552;-92
2023/03/11 05:39:57;;;;;;;3.53;1.33;;;;;;;;;;6230189;23;20175;-93
2023/03/11 05:43:04;;;;;;;3.77;1.50;;;;;;;;;;6228668;23;20594;-91
2023/03/11 05:46:12;;;;;;;1.70;1.00;;;;;;;;;;6229932;23;20199;-92
2023/03/11 05:49:20;;;;;;;4.17;1.10;;;;;;;;;;6230811;23;20175;-93
2023/03/11 05:52:26;;;;;;;2.50;1.10;;;;;;;;;;6230966;23;20190;-90
2023/03/11 05:55:33;;;;;;;2.43;1.10;;;;;;;;;;6231127;23;20170;-90
2023/03/11 05:58:39;;;;;;;2.00;1.30;;;;;;;;;;6229105;23;20186;-91
2023/03/11 06:01:48;;;;;;;2.20;1.10;;;;;;;;;;6229064;23;20159;-93
2023/03/11 06:04:54;;;;;;;2.47;1.10;;;;;;;;;;6229559;23;20202;-91
2023/03/11 06:07:59;;;;;;;2.10;1.10;;;;;;;;;;6231320;23;20235;-91
2023/03/11 06:11:09;;;;;;;1.80;1.10;;;;;;;;;;6232385;23;20191;-89
2023/03/11 06:14:41;;;;;;;3.07;1.17;;;;;;;;;;6249367;22;20219;-91
2023/03/11 06:17:46;;;;;;;1.10;1.00;;;;;;;;;;6230597;23;20190;-92
2023/03/11 06:21:07;;;;;;;4.63;1.30;;;;;;;;;;6231073;23;20232;-92
2023/03/11 06:24:13;;;;;;;1.00;0.90;;;;;;;;;;6232181;23;20183;-91
2023/03/11 06:27:19;;;;;;;5.57;1.10;;;;;;;;;;6232285;23;20247;-92
2023/03/11 06:30:25;;;;;;;4.23;1.80;;;;;;;;;;6231034;23;20167;-91
2023/03/11 06:33:39;;;;;;;1.90;1.30;;;;;;;;;;6235185;23;20619;-92
2023/03/11 06:36:44;;;;;;;4.43;1.20;;;;;;;;;;6232485;23;20216;-92
2023/03/11 06:39:53;;;;;;;1.83;1.20;;;;;;;;;;6231614;23;20215;-91
2023/03/11 06:43:02;;;;;;;1.10;1.00;;;;;;;;;;6230632;23;20170;-92
2023/03/11 06:46:11;;;;;;;2.40;1.17;;;;;;;;;;6231945;23;20699;-91
2023/03/11 06:49:18;;;;;;;2.33;0.90;;;;;;;;;;6235340;23;20170;-92
2023/03/11 06:52:24;;;;;;;1.60;1.10;;;;;;;;;;6232271;23;20171;-93
2023/03/11 06:55:30;;;;;;;1.90;1.30;;;;;;;;;;6248808;23;20174;-92
2023/03/11 06:58:40;;;;;;;2.07;1.00;;;;;;;;;;6231520;23;20194;-91
2023/03/11 07:01:49;;;;;;;1.60;0.97;;;;;;;;;;6248126;22;20162;-90
2023/03/11 07:04:54;;;;;;;3.83;1.20;;;;;;;;;;6231469;23;20238;-92
2023/03/11 07:08:00;;;;;;;1.50;1.00;;;;;;;;;;6231687;23;20170;-91
2023/03/11 07:11:06;;;;;;;1.60;1.00;;;;;;;;;;6231250;23;20163;-92
2023/03/11 07:14:39;;;;;;;2.70;1.90;;;;;;;;;;6229539;23;20171;-92
2023/03/11 07:17:46;;;;;;;2.27;1.30;;;;;;;;;;6232634;23;20210;-91
2023/03/11 07:21:11;;;;;;;1.83;1.10;;;;;;;;;;6232737;23;20171;-90
2023/03/11 07:24:16;;;;;;;2.57;1.03;;;;;;;;;;6232472;23;20167;-91
2023/03/11 07:27:22;;;;;;;1.50;1.00;;;;;;;;;;6233091;23;20236;-88
2023/03/11 07:30:28;;;;;;;5.57;1.20;;;;;;;;;;6233717;23;20171;-91
2023/03/11 07:33:37;;;;;;;3.00;1.40;;;;;;;;;;6233995;23;20171;-92
2023/03/11 07:36:48;;;;;;;3.50;1.23;;;;;;;;;;6234921;23;20167;-90
2023/03/11 07:39:54;;;;;;;3.40;1.60;;;;;;;;;;6233665;23;20241;-91
2023/03/11 07:42:59;;;;;;;3.23;1.50;;;;;;;;;;6231727;23;20214;-90
2023/03/11 07:46:09;;;;;;;7.50;1.23;;;;;;;;;;6229629;23;20591;-90
2023/03/11 07:49:15;;;;;;;2.93;1.30;;;;;;;;;;6247659;23;20638;-90
2023/03/11 07:52:20;;;;;;;1.50;1.13;;;;;;;;;;6248571;22;20163;-91
2023/03/11 07:55:26;;;;;;;1.27;0.93;;;;;;;;;;6231868;23;20170;-89
2023/03/11 07:58:31;;;;;;;1.30;0.97;;;;;;;;;;6229968;23;20191;-89
2023/03/11 08:01:39;;;;;;;2.10;1.20;;;;;;;;;;6230824;23;20167;-91
2023/03/11 08:04:56;;;;;;;1.57;1.00;;;;;;;;;;6232491;23;20224;-92
2023/03/11 08:08:02;;;;;;;3.60;1.33;;;;;;;;;;6232907;23;20182;-91
2023/03/11 08:11:08;;;;;;;1.57;1.10;;;;;;;;;;6231098;23;20187;-92
2023/03/11 08:14:15;;;;;;;5.83;1.20;;;;;;;;;;6231156;23;20167;-93
2023/03/11 08:17:21;;;;;;;1.77;1.13;;;;;;;;;;6234420;23;20669;-90
2023/03/11 08:20:28;;;;;;;6.90;1.50;;;;;;;;;;6234308;23;20163;-92
2023/03/11 08:23:34;;;;;;;4.17;1.60;;;;;;;;;;6251069;23;20247;-90
2023/03/11 08:26:39;;;;;;;3.97;1.60;;;;;;;;;;6233008;23;20167;-91
2023/03/11 08:29:44;;;;;;;2.67;1.50;;;;;;;;;;6231987;23;20209;-91
2023/03/11 08:32:50;;;;;;;6.93;1.60;;;;;;;;;;6230194;23;20167;-92
2023/03/11 08:35:57;;;;;;;2.03;1.37;;;;;;;;;;6230829;23;20239;-91
2023/03/11 08:39:03;;;;;;;4.20;1.80;;;;;;;;;;6230270;23;20273;-94
2023/03/11 08:42:08;;;;;;;1.47;1.10;;;;;;;;;;6231213;23;20192;-92
2023/03/11 08:45:13;;;;;;;3.67;1.40;;;;;;;;;;6230489;23;20191;-89
2023/03/11 08:48:18;;;;;;;3.07;1.40;;;;;;;;;;6229527;23;20171;-92
2023/03/11 08:51:26;;;;;;;2.70;1.40;;;;;;;;;;6230704;23;20166;-90
2023/03/11 08:54:33;;;;;;;4.40;1.27;;;;;;;;;;6232769;23;20222;-90
2023/03/11 08:57:38;;;;;;;4.47;1.40;;;;;;;;;;6233744;23;20190;-89
2023/03/11 09:00:49;;;;;;;3.60;1.43;;;;;;;;;;6233151;23;20361;-90
2023/03/11 09:03:54;;;;;;;3.93;1.30;;;;;;;;;;6235852;23;20172;-90
2023/03/11 09:07:01;;;;;;;4.97;1.60;;;;;;;;;;6232635;23;20307;-89
2023/03/11 09:10:07;;;;;;;2.47;1.33;;;;;;;;;;6235864;23;20212;-91
2023/03/11 09:13:13;;;;;;;2.20;1.10;;;;;;;;;;6233380;23;20167;-90
2023/03/11 09:16:19;;;;;;;3.23;1.37;;;;;;;;;;6235009;23;20171;-91
2023/03/11 09:19:26;;;;;;;4.67;1.43;;;;;;;;;;6232812;23;20238;-90
2023/03/11 09:22:32;;;;;;;2.47;1.50;;;;;;;;;;6235075;23;20175;-91
2023/03/11 09:25:39;;;;;;;1.50;1.00;;;;;;;;;;6232791;23;20625;-91
2023/03/11 09:28:47;;;;;;;4.10;1.60;;;;;;;;;;6232779;23;20672;-93
2023/03/11 09:31:53;;;;;;;4.90;1.40;;;;;;;;;;6233808;23;20166;-91
2023/03/11 09:38:19;;;;;;;6.17;1.50;;;;;;;;;;6234233;23;20214;-90
2023/03/11 09:41:31;;;;;;;1.63;1.10;;;;;;;;;;6234049;23;20179;-90
2023/03/11 09:44:42;;;;;;;5.50;1.23;;;;;;;;;;6233235;23;20244;-91
2023/03/11 09:47:54;;;;;;;3.33;1.13;;;;;;;;;;6249177;23;20170;-92
2023/03/11 09:51:01;;;;;;;2.93;1.50;;;;;;;;;;6233399;23;20244;-90
2023/03/11 09:54:10;;;;;;;1.77;1.10;;;;;;;;;;6231232;23;20175;-91
2023/03/11 09:57:18;;;;;;;3.27;1.30;;;;;;;;;;6233569;23;20171;-91
2023/03/11 10:00:24;;;;;;;2.40;1.30;;;;;;;;;;6233649;23;20178;-93
2023/03/11 10:03:32;;;;;;;2.40;1.20;;;;;;;;;;6234592;23;20167;-91
2023/03/11 10:06:38;;;;;;;1.37;1.00;;;;;;;;;;6232997;23;20579;-89
2023/03/11 10:09:49;;;;;;;2.10;1.23;;;;;;;;;;6233676;23;20498;-90
2023/03/11 10:13:01;;;;;;;3.30;1.13;;;;;;;;;;6230573;23;20159;-89
2023/03/11 10:16:11;;;;;;;9.07;1.40;;;;;;;;;;6232025;23;20194;-90
2023/03/11 10:19:25;;;;;;;3.13;1.50;;;;;;;;;;6230038;23;20195;-92
2023/03/11 10:22:33;;;;;;;4.50;1.60;;;;;;;;;;6230136;23;20171;-92
2023/03/11 10:25:47;;;;;;;3.00;1.10;;;;;;;;;;6230226;23;20495;-90
2023/03/11 10:28:57;;;;;;;2.07;1.10;;;;;;;;;;6228847;23;20171;-91
2023/03/11 10:32:06;;;;;;;3.27;1.57;;;;;;;;;;6230879;23;20218;-91
2023/03/11 10:35:21;;;;;;;4.60;1.40;;;;;;;;;;6231962;23;20627;-89
2023/03/11 10:38:28;;;;;;;6.77;2.03;;;;;;;;;;6230386;23;20206;-91
2023/03/11 10:41:40;;;;;;;4.40;1.90;;;;;;;;;;6230067;23;20246;-90
2023/03/11 10:44:46;;;;;;;3.50;2.00;;;;;;;;;;6229659;23;20167;-91
2023/03/11 10:47:51;;;;;;;3.30;1.60;;;;;;;;;;6229414;23;20171;-92
2023/03/11 10:50:59;;;;;;;3.07;1.53;;;;;;;;;;6229467;23;20503;-92
2023/03/11 10:54:04;;;;;;;3.17;1.40;;;;;;;;;;6230837;23;20247;-92
2023/03/11 10:57:24;;;;;;;4.03;1.90;;;;;;;;;;6230915;23;20238;-91
2023/03/11 11:01:05;;;;;;;1.67;1.17;;;;;;;;;;6230966;23;20154;-91
2023/03/11 11:04:24;;;;;;;1.13;0.90;;;;;;;;;;6232439;23;20171;-91
2023/03/11 11:07:30;;;;;;;3.57;1.30;;;;;;;;;;6230359;23;20167;-92
2023/03/11 11:10:36;;;;;;;3.17;1.20;;;;;;;;;;6230499;23;20286;-92
2023/03/11 11:13:56;;;;;;;3.37;1.40;;;;;;;;;;6232002;23;20176;-94
2023/03/11 11:17:01;;;;;;;4.07;1.30;;;;;;;;;;6230499;23;20180;-92
2023/03/11 11:20:18;;;;;;;3.33;1.30;;;;;;;;;;6232581;23;20219;-89
2023/03/11 11:23:28;;;;;;;2.03;1.00;;;;;;;;;;6235179;23;20201;-90
2023/03/11 11:26:33;;;;;;;2.73;0.90;;;;;;;;;;6251495;23;20175;-90
2023/03/11 11:29:40;;;;;;;3.90;2.03;;;;;;;;;;6232125;23;20236;-91
2023/03/11 11:32:45;;;;;;;2.30;1.00;;;;;;;;;;6231564;23;20280;-92
2023/03/11 11:35:52;;;;;;;1.50;0.90;;;;;;;;;;6230254;23;20167;-89
2023/03/11 11:38:57;;;;;;;1.53;0.80;;;;;;;;;;6230454;23;20190;-91
2023/03/11 11:42:03;;;;;;;0.80;0.77;;;;;;;;;;6229058;23;20199;-90
2023/03/11 11:45:14;;;;;;;0.80;0.70;;;;;;;;;;6230651;23;20187;-92
2023/03/11 11:48:22;;;;;;;3.40;1.00;;;;;;;;;;6230608;23;20236;-89
2023/03/11 11:51:31;;;;;;;1.60;0.83;;;;;;;;;;6233594;23;20167;-92
2023/03/11 11:54:38;;;;;;;1.60;0.90;;;;;;;;;;6233632;23;20169;-89
2023/03/11 11:57:44;;;;;;;2.47;1.20;;;;;;;;;;6234147;23;20198;-91
2023/03/11 12:01:02;;;;;;;1.17;0.70;;;;;;;;;;6231671;23;20171;-91
2023/03/11 12:04:37;;;;;;;1.80;1.10;;;;;;;;;;6231885;23;20168;-90
2023/03/11 12:07:51;;;;;;;1.50;0.90;;;;;;;;;;6232738;23;20168;-91
2023/03/11 12:10:59;;;;;;;2.27;1.27;;;;;;;;;;6229813;23;20156;-91
2023/03/11 12:14:09;;;;;;;1.60;0.90;;;;;;;;;;6231516;23;20212;-92
2023/03/11 12:17:24;;;;;;;1.43;1.00;;;;;;;;;;6230927;23;20238;-91
2023/03/11 12:20:33;;;;;;;2.20;0.80;;;;;;;;;;6229602;23;20199;-92
2023/03/11 12:23:46;;;;;;;2.67;0.90;;;;;;;;;;6232580;23;20211;-92
2023/03/11 12:26:52;;;;;;;1.37;0.87;;;;;;;;;;6232002;23;20174;-90
2023/03/11 12:30:00;;;;;;;2.73;0.97;;;;;;;;;;6233559;23;20170;-91
2023/03/11 12:33:13;;;;;;;2.47;0.90;;;;;;;;;;6231761;23;20222;-88
2023/03/11 12:36:24;;;;;;;11.67;4.57;;;;;;;;;;6232059;23;20247;-90
2023/03/11 12:39:30;;;;;;;3.40;1.03;;;;;;;;;;6231624;23;20190;-91
2023/03/11 12:42:40;;;;;;;1.70;1.00;;;;;;;;;;6230760;23;20171;-88
2023/03/11 12:45:50;;;;;;;5.53;1.40;;;;;;;;;;6230799;23;20190;-90
2023/03/11 12:49:10;;;;;;;3.03;1.30;;;;;;;;;;6232600;23;20195;-90
2023/03/11 12:52:25;;;;;;;2.07;1.20;;;;;;;;;;6230847;23;20155;-90
2023/03/11 12:55:32;;;;;;;1.70;1.00;;;;;;;;;;6247544;23;20183;-91
2023/03/11 12:58:50;;;;;;;6.00;1.30;;;;;;;;;;6232972;23;20182;-90
2023/03/11 13:02:17;;;;;;;4.03;1.23;;;;;;;;;;6232453;23;20656;-90
2023/03/11 13:05:28;;;;;;;3.00;1.40;;;;;;;;;;6232731;23;20190;-91
2023/03/11 13:08:38;;;;;;;3.90;1.30;;;;;;;;;;6232081;23;20171;-91
2023/03/11 13:11:45;;;;;;;3.20;1.40;;;;;;;;;;6232087;23;20172;-91
2023/03/11 13:15:02;;;;;;;1.50;1.07;;;;;;;;;;6232951;23;20162;-89
2023/03/11 13:18:16;;;;;;;3.93;1.57;;;;;;;;;;6233113;23;20240;-91
2023/03/11 13:21:40;;;;;;;3.67;1.40;;;;;;;;;;6235743;23;20168;-90
2023/03/11 13:24:54;;;;;;;2.20;1.20;;;;;;;;;;6236948;23;20172;-90
2023/03/11 13:28:07;;;;;;;2.63;1.37;;;;;;;;;;6236566;23;20197;-90
2023/03/11 13:31:19;;;;;;;3.80;1.40;;;;;;;;;;6231218;23;20175;-89
2023/03/11 13:34:28;;;;;;;3.37;1.80;;;;;;;;;;6232433;23;20167;-91
2023/03/11 13:37:38;;;;;;;4.83;1.30;;;;;;;;;;6231569;23;20176;-92
2023/03/11 13:40:46;;;;;;;2.13;1.03;;;;;;;;;;6229978;23;20199;-89
2023/03/11 13:43:52;;;;;;;3.00;1.63;;;;;;;;;;6231803;23;20219;-88
2023/03/11 13:46:59;;;;;;;4.60;1.20;;;;;;;;;;6231532;23;20170;-91
2023/03/11 13:50:06;;;;;;;2.63;1.10;;;;;;;;;;6232010;23;20216;-89
2023/03/11 13:53:17;;;;;;;1.67;1.10;;;;;;;;;;6231309;23;20220;-93
2023/03/11 13:56:26;;;;;;;4.80;1.43;;;;;;;;;;6230197;23;20295;-90
2023/03/11 13:59:33;;;;;;;3.87;1.10;;;;;;;;;;6232562;23;20195;-90
2023/03/11 14:03:05;;;;;;;2.70;1.50;;;;;;;;;;6232219;23;20171;-92
2023/03/11 14:06:12;;;;;;;2.50;1.10;;;;;;;;;;6231270;23;20191;-89
2023/03/11 14:09:19;;;;;;;1.90;1.10;;;;;;;;;;6231983;23;20630;-92
2023/03/11 14:12:31;;;;;;;1.53;1.00;;;;;;;;;;6231303;23;20167;-88
2023/03/11 14:15:44;;;;;;;2.17;1.23;;;;;;;;;;6232218;23;20163;-92
2023/03/11 14:19:02;;;;;;;3.63;1.50;;;;;;;;;;6231161;23;20182;-92
2023/03/11 14:22:21;;;;;;;2.53;1.23;;;;;;;;;;6231176;23;20160;-90
2023/03/11 14:25:27;;;;;;;4.20;1.60;;;;;;;;;;6231282;23;20216;-90
2023/03/11 14:28:35;;;;;;;3.43;1.70;;;;;;;;;;6228506;23;20167;-91
2023/03/11 14:31:42;;;;;;;2.57;1.10;;;;;;;;;;6230726;23;20167;-91
2023/03/11 14:34:47;;;;;;;3.97;1.33;;;;;;;;;;6228979;23;20246;-89
2023/03/11 14:37:52;;;;;;;4.07;1.97;;;;;;;;;;6230135;23;20171;-92
2023/03/11 14:40:59;;;;;;;5.53;1.67;;;;;;;;;;6227806;23;20223;-90
2023/03/11 14:44:07;;;;;;;5.33;2.17;;;;;;;;;;6229593;23;20190;-91
2023/03/11 14:47:16;;;;;;;8.13;1.80;;;;;;;;;;6231004;23;20155;-92
2023/03/11 14:50:24;;;;;;;3.73;1.70;;;;;;;;;;6239095;23;20186;-89
2023/03/11 14:53:32;;;;;;;4.67;1.80;;;;;;;;;;6238050;23;20198;-90
2023/03/11 14:56:40;;;;;;;3.70;1.77;;;;;;;;;;6233290;23;20279;-91
2023/03/11 14:59:50;;;;;;;3.13;1.80;;;;;;;;;;6230662;23;20174;-91
2023/03/11 15:03:06;;;;;;;3.77;1.67;;;;;;;;;;6230238;23;20167;-91
2023/03/11 15:06:13;;;;;;;4.07;2.03;;;;;;;;;;6249341;23;20174;-91
2023/03/11 15:09:19;;;;;;;7.73;1.90;;;;;;;;;;6231467;23;20170;-91
2023/03/11 15:12:32;;;;;;;4.07;1.73;;;;;;;;;;6232068;23;20163;-93
2023/03/11 15:15:40;;;;;;;3.67;1.70;;;;;;;;;;6232244;23;20183;-91
2023/03/11 15:18:45;;;;;;;3.97;1.90;;;;;;;;;;6232243;23;20633;-92
2023/03/11 15:21:53;;;;;;;3.60;1.60;;;;;;;;;;6249802;23;20183;-94
2023/03/11 15:24:59;;;;;;;2.73;1.40;;;;;;;;;;6230156;23;20166;-91
2023/03/11 15:28:23;;;;;;;4.17;1.97;;;;;;;;;;6230191;23;20168;-93
2023/03/11 15:31:35;;;;;;;2.33;1.50;;;;;;;;;;6232774;23;20634;-91
2023/03/11 15:34:41;;;;;;;5.03;2.00;;;;;;;;;;6234311;23;20220;-93
2023/03/11 15:37:47;;;;;;;6.20;1.50;;;;;;;;;;6233145;23;20198;-91
2023/03/11 15:40:54;;;;;;;3.50;1.80;;;;;;;;;;6233271;23;20252;-92
2023/03/11 15:44:02;;;;;;;5.13;1.60;;;;;;;;;;6237811;23;20163;-90
2023/03/11 15:47:13;;;;;;;4.77;2.00;;;;;;;;;;6231189;23;20170;-90
2023/03/11 15:50:22;;;;;;;2.87;1.50;;;;;;;;;;6232666;23;20231;-91
2023/03/11 15:53:28;;;;;;;3.23;1.73;;;;;;;;;;6248200;22;20242;-93
2023/03/11 15:56:35;;;;;;;4.73;1.73;;;;;;;;;;6230185;23;20158;-92
2023/03/11 15:59:42;;;;;;;3.83;1.50;;;;;;;;;;6249296;23;20198;-92
2023/03/11 16:03:09;;;;;;;2.40;1.40;;;;;;;;;;6248007;23;20187;-92
2023/03/11 16:06:17;;;;;;;3.47;1.50;;;;;;;;;;6231398;23;20194;-91
2023/03/11 16:09:23;;;;;;;2.20;1.30;;;;;;;;;;6230310;23;20163;-91
2023/03/11 16:12:29;;;;;;;2.63;1.70;;;;;;;;;;6230889;23;20167;-91
2023/03/11 16:15:36;;;;;;;5.93;1.90;;;;;;;;;;6231155;23;20166;-91
2023/03/11 16:18:41;;;;;;;5.30;1.80;;;;;;;;;;6228812;23;20214;-91
2023/03/11 16:21:49;;;;;;;6.53;1.57;;;;;;;;;;6228057;23;20673;-89
2023/03/11 16:24:55;;;;;;;3.50;1.50;;;;;;;;;;6227434;23;20241;-90
2023/03/11 16:28:00;;;;;;;5.00;1.90;;;;;;;;;;6226710;23;20215;-91
2023/03/11 16:31:07;;;;;;;5.53;2.60;;;;;;;;;;6228712;23;20171;-92
2023/03/11 16:34:12;;;;;;;6.20;2.50;;;;;;;;;;6228822;23;20174;-93
2023/03/11 16:37:20;;;;;;;7.20;2.40;;;;;;;;;;6229244;23;20168;-92
2023/03/11 16:40:27;;;;;;;8.63;3.30;;;;;;;;;;6228540;23;20245;-90
2023/03/11 16:43:32;;;;;;;10.80;3.57;;;;;;;;;;6230465;23;20164;-90
2023/03/11 16:46:38;;;;;;;7.57;2.30;;;;;;;;;;6247191;23;20231;-91
2023/03/11 16:49:43;;;;;;;6.27;2.13;;;;;;;;;;6228707;23;20226;-90
2023/03/11 16:52:56;;;;;;;7.87;2.47;;;;;;;;;;6229762;23;20167;-93
2023/03/11 16:56:01;;;;;;;8.97;2.90;;;;;;;;;;6230002;23;20168;-91
2023/03/11 16:59:07;;;;;;;11.80;3.77;;;;;;;;;;6231169;23;20148;-90
2023/03/11 17:02:13;;;;;;;3.80;2.23;;;;;;;;;;6231271;23;20171;-91
2023/03/11 17:05:19;;;;;;;3.23;1.67;;;;;;;;;;6248179;22;20187;-90
2023/03/11 17:08:26;;;;;;;5.67;2.10;;;;;;;;;;6230965;23;20307;-90
2023/03/11 17:11:32;;;;;;;4.53;2.13;;;;;;;;;;6232438;23;20212;-92
2023/03/11 17:14:41;;;;;;;3.37;1.60;;;;;;;;;;6213892;23;20179;-92
2023/03/11 17:17:47;;;;;;;9.57;4.43;;;;;;;;;;6232162;23;20313;-92
2023/03/11 17:21:00;;;;;;;7.67;2.50;;;;;;;;;;6234980;23;20198;-93
2023/03/11 17:24:07;;;;;;;4.00;2.37;;;;;;;;;;6252240;23;20159;-94
2023/03/11 17:27:12;;;;;;;8.23;2.33;;;;;;;;;;6233134;23;20183;-90
2023/03/11 17:30:20;;;;;;;3.87;2.47;;;;;;;;;;6233354;23;20626;-90
2023/03/11 17:33:26;;;;;;;6.40;2.50;;;;;;;;;;6232807;23;20239;-91
2023/03/11 17:36:34;;;;;;;3.73;2.07;;;;;;;;;;6250513;22;20159;-92
2023/03/11 17:39:41;;;;;;;4.00;2.10;;;;;;;;;;6250218;22;20199;-92
2023/03/11 17:42:48;;;;;;;5.53;2.20;;;;;;;;;;6250153;23;20271;-91
2023/03/11 17:45:54;;;;;;;4.10;1.80;;;;;;;;;;6233462;23;20171;-91
2023/03/11 17:49:00;;;;;;;3.90;1.93;;;;;;;;;;6230217;23;20164;-89
2023/03/11 19:16:42;;;;;;;10.33;3.87;;;;;;;;;;6214602;22;20195;-91
2023/03/11 19:20:14;;;;;;;11.60;3.50;;;;;;;;;;6228787;23;20171;-89
2023/03/11 19:23:19;;;;;;;9.70;3.80;;;;;;;;;;6230606;23;20535;-90
2023/03/11 19:26:24;;;;;;;6.67;3.10;;;;;;;;;;6228675;23;20191;-91
2023/03/11 19:29:30;;;;;;;9.10;3.87;;;;;;;;;;6246016;23;20171;-92
2023/03/11 19:32:37;;;;;;;17.00;4.53;;;;;;;;;;6226904;23;20175;-92
2023/03/11 19:35:42;;;;;;;12.00;5.10;;;;;;;;;;6228016;23;20167;-93
2023/03/11 19:38:47;;;;;;;9.20;4.07;;;;;;;;;;6228807;23;20242;-91
2023/03/11 19:41:54;;;;;;;8.70;3.60;;;;;;;;;;6228134;23;20202;-93
2023/03/11 19:44:59;;;;;;;7.80;3.60;;;;;;;;;;6227665;23;20228;-92
2023/03/11 19:48:06;;;;;;;6.43;3.13;;;;;;;;;;6227968;23;20234;-91
2023/03/11 19:51:12;;;;;;;7.60;3.33;;;;;;;;;;6228844;23;20159;-91
2023/03/11 19:54:18;;;;;;;10.53;4.00;;;;;;;;;;6229615;23;20208;-91
2023/03/11 19:57:23;;;;;;;14.27;4.50;;;;;;;;;;6229265;23;20187;-90
2023/03/11 20:00:29;;;;;;;8.83;3.17;;;;;;;;;;6227801;23;20203;-92
2023/03/11 20:03:36;;;;;;;4.83;2.60;;;;;;;;;;6226821;23;20194;-91
2023/03/11 20:06:41;;;;;;;7.33;2.90;;;;;;;;;;6227611;23;20155;-90
2023/03/11 20:09:50;;;;;;;9.13;3.10;;;;;;;;;;6227987;23;20170;-91
2023/03/11 20:12:55;;;;;;;10.30;3.80;;;;;;;;;;6228706;23;20218;-90
2023/03/11 20:16:12;;;;;;;11.23;4.33;;;;;;;;;;6227782;23;20187;-90
2023/03/11 20:19:20;;;;;;;11.40;3.93;;;;;;;;;;6246338;23;20164;-93
2023/03/11 20:22:25;;;;;;;10.00;4.23;;;;;;;;;;6228699;23;20982;-91
2023/03/11 20:25:32;;;;;;;13.00;6.67;;;;;;;;;;6248423;22;20167;-93
2023/03/11 20:28:37;;;;;;;7.03;3.40;;;;;;;;;;6226790;23;20167;-91
2023/03/11 20:31:43;;;;;;;12.47;5.23;;;;;;;;;;6228464;23;20483;-90
2023/03/11 20:34:56;;;;;;;21.10;8.67;;;;;;;;;;6226086;23;20662;-90
2023/03/11 20:38:09;;;;;;;17.33;6.90;;;;;;;;;;6227895;23;20241;-92
2023/03/11 20:41:14;;;;;;;19.17;7.10;;;;;;;;;;6228261;23;20191;-92
2023/03/11 20:44:19;;;;;;;20.77;7.00;;;;;;;;;;6225946;23;20159;-92
2023/03/11 20:47:24;;;;;;;18.27;6.77;;;;;;;;;;6229214;23;20166;-89
2023/03/11 20:50:30;;;;;;;14.77;5.20;;;;;;;;;;6227855;23;20171;-90
2023/03/11 20:53:36;;;;;;;14.70;5.33;;;;;;;;;;6228029;23;20167;-92
2023/03/11 20:56:41;;;;;;;10.57;4.60;;;;;;;;;;6229505;23;20167;-90
2023/03/11 20:59:46;;;;;;;9.23;4.20;;;;;;;;;;6247007;22;20255;-95
2023/03/11 21:03:23;;;;;;;22.13;7.90;;;;;;;;;;6226693;23;20167;-92
2023/03/11 21:06:35;;;;;;;22.33;8.57;;;;;;;;;;6246708;22;20174;-91
2023/03/11 21:09:40;;;;;;;21.20;8.53;;;;;;;;;;6228925;23;20183;-91
2023/03/11 21:12:45;;;;;;;16.63;6.40;;;;;;;;;;6228180;23;20175;-91
2023/03/11 21:15:54;;;;;;;14.13;6.20;;;;;;;;;;6231935;23;20245;-93
2023/03/11 21:19:06;;;;;;;15.23;5.63;;;;;;;;;;6228967;23;20263;-89
2023/03/11 21:22:23;;;;;;;10.93;4.50;;;;;;;;;;6228461;23;20195;-90
2023/03/11 21:25:30;;;;;;;9.50;4.00;;;;;;;;;;6230306;23;20171;-92
2023/03/11 21:28:37;;;;;;;12.97;4.20;;;;;;;;;;6228909;23;20179;-91
2023/03/11 21:31:43;;;;;;;17.30;5.67;;;;;;;;;;6228459;23;20162;-93
2023/03/11 21:34:49;;;;;;;11.07;4.70;;;;;;;;;;6228288;23;20170;-89
2023/03/11 21:37:56;;;;;;;11.13;4.90;;;;;;;;;;6246762;22;20263;-92
2023/03/11 21:41:05;;;;;;;11.30;4.20;;;;;;;;;;6229275;23;20210;-92
2023/03/11 21:44:10;;;;;;;8.40;3.83;;;;;;;;;;6245161;23;20618;-91
2023/03/11 21:47:16;;;;;;;7.30;3.40;;;;;;;;;;6227925;23;20155;-92
2023/03/11 21:50:21;;;;;;;8.57;3.63;;;;;;;;;;6228113;23;20154;-92
2023/03/11 21:53:28;;;;;;;8.10;3.70;;;;;;;;;;6228498;23;20168;-90
2023/03/11 21:56:33;;;;;;;8.97;3.80;;;;;;;;;;6227281;23;20210;-93
2023/03/11 21:59:38;;;;;;;13.97;4.87;;;;;;;;;;6227493;23;20622;-92
2023/03/11 22:02:47;;;;;;;9.50;4.07;;;;;;;;;;6244268;23;20187;-91
2023/03/11 22:05:56;;;;;;;8.93;4.33;;;;;;;;;;6226712;23;20236;-90
2023/03/11 22:09:02;;;;;;;13.30;4.03;;;;;;;;;;6228050;23;20174;-91
2023/03/11 22:12:08;;;;;;;14.70;3.93;;;;;;;;;;6228713;23;20170;-91
2023/03/11 22:15:13;;;;;;;12.87;4.20;;;;;;;;;;6227339;23;20291;-91
2023/03/11 22:18:19;;;;;;;16.90;6.03;;;;;;;;;;6227621;23;20171;-92
2023/03/11 22:21:25;;;;;;;10.70;4.47;;;;;;;;;;6226587;23;20198;-91
2023/03/11 22:24:32;;;;;;;8.33;3.70;;;;;;;;;;6228162;23;20199;-90
2023/03/11 22:27:39;;;;;;;55.63;24.70;;;;;;;;;;6228183;23;20171;-89